sensor_id;sensor_type;location;lat;lon;timestamp;temperature;humidity
67163;DHT22;54092;53.088;8.850;2023-08-06T00:00:04;14.00;99.90
67163;DHT22;54092;53.088;8.850;2023-08-06T00:02:30;13.90;99.90
67163;DHT22;54092;53.088;8.850;2023-08-06T00:04:56;13.90;99.90
67163;DHT22;54092;53.088;8.850;2023-08-06T00:07:21;13.90;99.90
67163;DHT22;54092;53.088;8.850;2023-08-06T00:09:47;14.00;99.90
67163;DHT22;54092;53.088;8.850;2023-08-06T00:12:12;13.90;99.90
67163;DHT22;54092;53.088;8.850;2023-08-06T00:14:38;13.90;99.90
67163;DHT22;54092;53.088;8.850;2023-08-06T00:17:03;13.90;99.90
67163;DHT22;54092;53.088;8.850;2023-08-06T00:19:30;13.90;99.90
67163;DHT22;54092;53.088;8.850;2023-08-06T00:21:56;13.90;99.90
67163;DHT22;54092;53.088;8.850;2023-08-06T00:24:21;14.00;99.90
67163;DHT22;54092;53.088;8.850;2023-08-06T00:26:47;13.90;99.90
67163;DHT22;54092;53.088;8.850;2023-08-06T00:29:12;13.90;99.90
67163;DHT22;54092;53.088;8.850;2023-08-06T00:31:38;14.00;99.90
67163;DHT22;54092;53.088;8.850;2023-08-06T00:34:03;14.00;99.90
67163;DHT22;54092;53.088;8.850;2023-08-06T00:36:29;14.00;99.90
67163;DHT22;54092;53.088;8.850;2023-08-06T00:38:54;14.00;99.90
67163;DHT22;54092;53.088;8.850;2023-08-06T00:41:21;14.00;99.90
67163;DHT22;54092;53.088;8.850;2023-08-06T00:43:46;14.00;99.90
67163;DHT22;54092;53.088;8.850;2023-08-06T00:46:12;14.00;99.90
67163;DHT22;54092;53.088;8.850;2023-08-06T00:48:38;14.00;99.90
67163;DHT22;54092;53.088;8.850;2023-08-06T00:51:05;14.00;99.90
67163;DHT22;54092;53.088;8.850;2023-08-06T00:53:30;14.00;99.90
67163;DHT22;54092;53.088;8.850;2023-08-06T00:55:56;14.00;99.90
67163;DHT22;54092;53.088;8.850;2023-08-06T00:58:21;14.10;99.90
67163;DHT22;54092;53.088;8.850;2023-08-06T01:00:47;14.10;99.90
67163;DHT22;54092;53.088;8.850;2023-08-06T01:03:12;14.10;99.90
67163;DHT22;54092;53.088;8.850;2023-08-06T01:05:38;14.10;99.90
67163;DHT22;54092;53.088;8.850;2023-08-06T01:13:47;14.10;99.90
67163;DHT22;54092;53.088;8.850;2023-08-06T01:16:19;14.20;99.90
67163;DHT22;54092;53.088;8.850;2023-08-06T01:18:47;14.20;99.90
67163;DHT22;54092;53.088;8.850;2023-08-06T01:21:15;14.20;99.90
67163;DHT22;54092;53.088;8.850;2023-08-06T01:23:41;14.20;99.90
67163;DHT22;54092;53.088;8.850;2023-08-06T01:26:24;14.10;99.90
67163;DHT22;54092;53.088;8.850;2023-08-06T01:29:39;14.10;99.90
67163;DHT22;54092;53.088;8.850;2023-08-06T01:31:44;14.20;99.90
67163;DHT22;54092;53.088;8.850;2023-08-06T01:34:17;14.10;99.90
67163;DHT22;54092;53.088;8.850;2023-08-06T01:36:46;14.10;99.90
67163;DHT22;54092;53.088;8.850;2023-08-06T01:39:11;14.10;99.90
67163;DHT22;54092;53.088;8.850;2023-08-06T01:41:37;14.10;99.90
67163;DHT22;54092;53.088;8.850;2023-08-06T01:44:03;14.10;99.90
67163;DHT22;54092;53.088;8.850;2023-08-06T01:46:28;14.10;99.90
67163;DHT22;54092;53.088;8.850;2023-08-06T01:48:54;14.10;99.90
67163;DHT22;54092;53.088;8.850;2023-08-06T01:51:19;14.10;99.90
67163;DHT22;54092;53.088;8.850;2023-08-06T01:53:45;14.10;99.90
67163;DHT22;54092;53.088;8.850;2023-08-06T01:56:10;14.10;99.90
67163;DHT22;54092;53.088;8.850;2023-08-06T01:58:36;14.10;99.90
67163;DHT22;54092;53.088;8.850;2023-08-06T02:01:02;14.10;99.90
67163;DHT22;54092;53.088;8.850;2023-08-06T02:03:28;14.00;99.90
67163;DHT22;54092;53.088;8.850;2023-08-06T02:05:53;14.00;99.90
67163;DHT22;54092;53.088;8.850;2023-08-06T02:08:19;14.00;99.90
67163;DHT22;54092;53.088;8.850;2023-08-06T02:10:45;14.00;99.90
67163;DHT22;54092;53.088;8.850;2023-08-06T02:13:10;14.00;99.90
67163;DHT22;54092;53.088;8.850;2023-08-06T02:15:36;14.00;99.90
67163;DHT22;54092;53.088;8.850;2023-08-06T02:18:06;14.00;99.90
67163;DHT22;54092;53.088;8.850;2023-08-06T02:20:32;13.90;99.90
67163;DHT22;54092;53.088;8.850;2023-08-06T02:22:57;13.90;99.90
67163;DHT22;54092;53.088;8.850;2023-08-06T02:25:24;13.90;99.90
67163;DHT22;54092;53.088;8.850;2023-08-06T02:27:49;13.90;99.90
67163;DHT22;54092;53.088;8.850;2023-08-06T02:30:15;13.90;99.90
67163;DHT22;54092;53.088;8.850;2023-08-06T02:32:40;13.90;99.90
67163;DHT22;54092;53.088;8.850;2023-08-06T02:35:06;13.90;99.90
67163;DHT22;54092;53.088;8.850;2023-08-06T02:37:34;14.00;99.90
67163;DHT22;54092;53.088;8.850;2023-08-06T02:39:59;14.00;99.90
67163;DHT22;54092;53.088;8.850;2023-08-06T02:42:25;14.00;99.90
67163;DHT22;54092;53.088;8.850;2023-08-06T02:44:52;14.00;99.90
67163;DHT22;54092;53.088;8.850;2023-08-06T02:47:20;14.00;99.90
67163;DHT22;54092;53.088;8.850;2023-08-06T02:49:46;13.90;99.90
67163;DHT22;54092;53.088;8.850;2023-08-06T02:52:11;13.90;99.90
67163;DHT22;54092;53.088;8.850;2023-08-06T02:54:37;14.00;99.90
67163;DHT22;54092;53.088;8.850;2023-08-06T02:57:03;14.00;99.90
67163;DHT22;54092;53.088;8.850;2023-08-06T02:59:28;14.00;99.90
67163;DHT22;54092;53.088;8.850;2023-08-06T03:01:54;14.00;99.90
67163;DHT22;54092;53.088;8.850;2023-08-06T03:04:19;13.90;99.90
67163;DHT22;54092;53.088;8.850;2023-08-06T03:06:45;13.90;99.90
67163;DHT22;54092;53.088;8.850;2023-08-06T03:09:10;13.90;99.90
67163;DHT22;54092;53.088;8.850;2023-08-06T03:11:36;13.80;99.90
67163;DHT22;54092;53.088;8.850;2023-08-06T03:14:01;13.80;99.90
67163;DHT22;54092;53.088;8.850;2023-08-06T03:16:27;13.80;99.90
67163;DHT22;54092;53.088;8.850;2023-08-06T03:18:52;13.80;99.90
67163;DHT22;54092;53.088;8.850;2023-08-06T03:21:18;13.80;99.90
67163;DHT22;54092;53.088;8.850;2023-08-06T03:23:47;13.80;99.90
67163;DHT22;54092;53.088;8.850;2023-08-06T03:26:12;13.80;99.90
67163;DHT22;54092;53.088;8.850;2023-08-06T03:28:38;13.80;99.90
67163;DHT22;54092;53.088;8.850;2023-08-06T03:31:04;13.80;99.90
67163;DHT22;54092;53.088;8.850;2023-08-06T03:33:29;13.80;99.90
67163;DHT22;54092;53.088;8.850;2023-08-06T03:35:55;13.80;99.90
67163;DHT22;54092;53.088;8.850;2023-08-06T03:38:21;13.90;99.90
67163;DHT22;54092;53.088;8.850;2023-08-06T03:40:48;13.80;99.90
67163;DHT22;54092;53.088;8.850;2023-08-06T03:43:14;13.90;99.90
67163;DHT22;54092;53.088;8.850;2023-08-06T03:45:40;13.90;99.90
67163;DHT22;54092;53.088;8.850;2023-08-06T03:48:06;13.80;99.90
67163;DHT22;54092;53.088;8.850;2023-08-06T03:50:31;13.90;99.90
67163;DHT22;54092;53.088;8.850;2023-08-06T03:52:57;13.90;99.90
67163;DHT22;54092;53.088;8.850;2023-08-06T03:55:22;13.90;99.90
67163;DHT22;54092;53.088;8.850;2023-08-06T03:57:48;13.90;99.90
67163;DHT22;54092;53.088;8.850;2023-08-06T04:00:13;13.90;99.90
67163;DHT22;54092;53.088;8.850;2023-08-06T04:02:39;13.90;99.90
67163;DHT22;54092;53.088;8.850;2023-08-06T04:05:05;13.90;99.90
67163;DHT22;54092;53.088;8.850;2023-08-06T04:07:30;13.90;99.90
67163;DHT22;54092;53.088;8.850;2023-08-06T04:10:00;13.90;99.90
67163;DHT22;54092;53.088;8.850;2023-08-06T04:12:26;13.90;99.90
67163;DHT22;54092;53.088;8.850;2023-08-06T04:14:53;14.00;99.90
67163;DHT22;54092;53.088;8.850;2023-08-06T04:17:20;14.00;99.90
67163;DHT22;54092;53.088;8.850;2023-08-06T04:19:55;14.00;99.90
67163;DHT22;54092;53.088;8.850;2023-08-06T04:22:23;14.00;99.90
67163;DHT22;54092;53.088;8.850;2023-08-06T04:24:49;14.00;99.90
67163;DHT22;54092;53.088;8.850;2023-08-06T04:27:15;14.00;99.90
67163;DHT22;54092;53.088;8.850;2023-08-06T04:29:41;14.00;99.90
67163;DHT22;54092;53.088;8.850;2023-08-06T04:32:08;14.00;99.90
67163;DHT22;54092;53.088;8.850;2023-08-06T04:34:35;14.00;99.90
67163;DHT22;54092;53.088;8.850;2023-08-06T04:37:01;14.00;99.90
67163;DHT22;54092;53.088;8.850;2023-08-06T04:39:27;14.10;99.90
67163;DHT22;54092;53.088;8.850;2023-08-06T04:41:53;14.10;99.90
67163;DHT22;54092;53.088;8.850;2023-08-06T04:44:19;14.10;99.90
67163;DHT22;54092;53.088;8.850;2023-08-06T04:46:44;14.10;99.90
67163;DHT22;54092;53.088;8.850;2023-08-06T04:49:10;14.00;99.90
67163;DHT22;54092;53.088;8.850;2023-08-06T04:51:35;14.00;99.90
67163;DHT22;54092;53.088;8.850;2023-08-06T04:54:01;14.00;99.90
67163;DHT22;54092;53.088;8.850;2023-08-06T04:56:26;14.00;99.90
67163;DHT22;54092;53.088;8.850;2023-08-06T04:58:52;14.00;99.90
67163;DHT22;54092;53.088;8.850;2023-08-06T05:01:17;14.00;99.90
67163;DHT22;54092;53.088;8.850;2023-08-06T05:03:43;14.00;99.90
67163;DHT22;54092;53.088;8.850;2023-08-06T05:06:09;14.10;99.90
67163;DHT22;54092;53.088;8.850;2023-08-06T05:08:34;14.00;99.90
67163;DHT22;54092;53.088;8.850;2023-08-06T05:11:00;14.10;99.90
67163;DHT22;54092;53.088;8.850;2023-08-06T05:13:25;14.10;99.90
67163;DHT22;54092;53.088;8.850;2023-08-06T05:15:53;14.10;99.90
67163;DHT22;54092;53.088;8.850;2023-08-06T05:18:19;14.10;99.90
67163;DHT22;54092;53.088;8.850;2023-08-06T05:20:44;14.10;99.90
67163;DHT22;54092;53.088;8.850;2023-08-06T05:23:10;14.10;99.90
67163;DHT22;54092;53.088;8.850;2023-08-06T05:25:36;14.20;99.90
67163;DHT22;54092;53.088;8.850;2023-08-06T05:28:02;14.20;99.90
67163;DHT22;54092;53.088;8.850;2023-08-06T05:30:28;14.20;99.90
67163;DHT22;54092;53.088;8.850;2023-08-06T05:32:53;14.30;99.90
67163;DHT22;54092;53.088;8.850;2023-08-06T05:35:20;14.30;99.90
67163;DHT22;54092;53.088;8.850;2023-08-06T05:37:46;14.40;99.90
67163;DHT22;54092;53.088;8.850;2023-08-06T05:40:12;14.40;99.90
67163;DHT22;54092;53.088;8.850;2023-08-06T05:42:37;14.30;99.90
67163;DHT22;54092;53.088;8.850;2023-08-06T05:45:03;14.40;99.90
67163;DHT22;54092;53.088;8.850;2023-08-06T05:47:28;14.40;99.90
67163;DHT22;54092;53.088;8.850;2023-08-06T05:49:54;14.50;99.90
67163;DHT22;54092;53.088;8.850;2023-08-06T05:52:19;14.50;99.90
67163;DHT22;54092;53.088;8.850;2023-08-06T05:54:45;14.60;99.90
67163;DHT22;54092;53.088;8.850;2023-08-06T05:57:10;14.60;99.90
67163;DHT22;54092;53.088;8.850;2023-08-06T05:59:36;14.60;99.90
67163;DHT22;54092;53.088;8.850;2023-08-06T06:02:02;14.70;99.90
67163;DHT22;54092;53.088;8.850;2023-08-06T06:04:28;14.70;99.90
67163;DHT22;54092;53.088;8.850;2023-08-06T06:06:54;14.60;99.90
67163;DHT22;54092;53.088;8.850;2023-08-06T06:09:19;14.70;99.90
67163;DHT22;54092;53.088;8.850;2023-08-06T06:11:45;14.70;99.90
67163;DHT22;54092;53.088;8.850;2023-08-06T06:14:10;14.70;99.90
67163;DHT22;54092;53.088;8.850;2023-08-06T06:16:36;14.80;99.90
67163;DHT22;54092;53.088;8.850;2023-08-06T06:19:01;14.80;99.90
67163;DHT22;54092;53.088;8.850;2023-08-06T06:21:27;14.90;99.90
67163;DHT22;54092;53.088;8.850;2023-08-06T06:23:52;14.90;99.90
67163;DHT22;54092;53.088;8.850;2023-08-06T06:26:21;14.90;99.90
67163;DHT22;54092;53.088;8.850;2023-08-06T06:28:46;15.00;99.90
67163;DHT22;54092;53.088;8.850;2023-08-06T06:31:12;15.00;99.90
67163;DHT22;54092;53.088;8.850;2023-08-06T06:33:37;15.10;99.90
67163;DHT22;54092;53.088;8.850;2023-08-06T06:36:03;15.30;99.90
67163;DHT22;54092;53.088;8.850;2023-08-06T06:38:29;15.20;99.90
67163;DHT22;54092;53.088;8.850;2023-08-06T06:40:55;15.30;99.90
67163;DHT22;54092;53.088;8.850;2023-08-06T06:43:21;15.30;99.90
67163;DHT22;54092;53.088;8.850;2023-08-06T06:45:47;15.30;99.90
67163;DHT22;54092;53.088;8.850;2023-08-06T06:48:12;15.40;99.90
67163;DHT22;54092;53.088;8.850;2023-08-06T06:50:37;15.30;99.90
67163;DHT22;54092;53.088;8.850;2023-08-06T06:53:04;15.30;99.90
67163;DHT22;54092;53.088;8.850;2023-08-06T06:55:30;15.30;99.90
67163;DHT22;54092;53.088;8.850;2023-08-06T06:57:55;15.20;99.90
67163;DHT22;54092;53.088;8.850;2023-08-06T07:00:21;15.20;99.90
67163;DHT22;54092;53.088;8.850;2023-08-06T07:02:46;15.30;99.90
67163;DHT22;54092;53.088;8.850;2023-08-06T07:05:12;15.30;99.90
67163;DHT22;54092;53.088;8.850;2023-08-06T07:07:37;15.30;99.90
67163;DHT22;54092;53.088;8.850;2023-08-06T07:10:03;15.30;99.90
67163;DHT22;54092;53.088;8.850;2023-08-06T07:12:28;15.30;99.90
67163;DHT22;54092;53.088;8.850;2023-08-06T07:14:54;15.30;99.90
67163;DHT22;54092;53.088;8.850;2023-08-06T07:17:20;15.40;99.90
67163;DHT22;54092;53.088;8.850;2023-08-06T07:19:46;15.50;99.90
67163;DHT22;54092;53.088;8.850;2023-08-06T07:22:11;15.50;99.90
67163;DHT22;54092;53.088;8.850;2023-08-06T07:24:37;15.50;99.90
67163;DHT22;54092;53.088;8.850;2023-08-06T07:27:02;15.50;99.90
67163;DHT22;54092;53.088;8.850;2023-08-06T07:29:28;15.60;99.90
67163;DHT22;54092;53.088;8.850;2023-08-06T07:31:53;15.80;99.90
67163;DHT22;54092;53.088;8.850;2023-08-06T07:34:20;16.00;99.90
67163;DHT22;54092;53.088;8.850;2023-08-06T07:36:46;16.20;99.90
67163;DHT22;54092;53.088;8.850;2023-08-06T07:39:12;16.30;99.90
67163;DHT22;54092;53.088;8.850;2023-08-06T07:41:37;16.40;99.90
67163;DHT22;54092;53.088;8.850;2023-08-06T07:44:04;16.50;99.90
67163;DHT22;54092;53.088;8.850;2023-08-06T07:46:29;16.50;99.90
67163;DHT22;54092;53.088;8.850;2023-08-06T07:48:55;16.50;99.90
67163;DHT22;54092;53.088;8.850;2023-08-06T07:51:20;16.40;99.90
67163;DHT22;54092;53.088;8.850;2023-08-06T07:53:46;16.60;99.90
67163;DHT22;54092;53.088;8.850;2023-08-06T07:56:11;16.80;99.90
67163;DHT22;54092;53.088;8.850;2023-08-06T07:58:37;16.80;99.90
67163;DHT22;54092;53.088;8.850;2023-08-06T08:01:02;16.90;99.90
67163;DHT22;54092;53.088;8.850;2023-08-06T08:03:28;16.90;99.90
67163;DHT22;54092;53.088;8.850;2023-08-06T08:05:55;16.90;99.90
67163;DHT22;54092;53.088;8.850;2023-08-06T08:08:23;17.00;99.90
67163;DHT22;54092;53.088;8.850;2023-08-06T08:10:49;17.10;99.90
67163;DHT22;54092;53.088;8.850;2023-08-06T08:13:15;17.40;99.90
67163;DHT22;54092;53.088;8.850;2023-08-06T08:15:40;17.60;99.90
67163;DHT22;54092;53.088;8.850;2023-08-06T08:18:06;17.90;99.90
67163;DHT22;54092;53.088;8.850;2023-08-06T08:20:31;18.10;99.90
67163;DHT22;54092;53.088;8.850;2023-08-06T08:22:59;18.20;99.90
67163;DHT22;54092;53.088;8.850;2023-08-06T08:25:25;18.10;99.90
67163;DHT22;54092;53.088;8.850;2023-08-06T08:27:52;18.20;99.90
67163;DHT22;54092;53.088;8.850;2023-08-06T08:30:18;18.00;99.90
67163;DHT22;54092;53.088;8.850;2023-08-06T08:32:43;17.70;99.90
67163;DHT22;54092;53.088;8.850;2023-08-06T08:35:09;17.60;99.90
67163;DHT22;54092;53.088;8.850;2023-08-06T08:37:35;17.70;99.90
67163;DHT22;54092;53.088;8.850;2023-08-06T08:40:01;17.60;99.90
67163;DHT22;54092;53.088;8.850;2023-08-06T08:42:28;17.40;99.90
67163;DHT22;54092;53.088;8.850;2023-08-06T08:44:54;17.50;99.90
67163;DHT22;54092;53.088;8.850;2023-08-06T08:47:20;17.90;99.90
67163;DHT22;54092;53.088;8.850;2023-08-06T08:49:47;18.10;99.90
67163;DHT22;54092;53.088;8.850;2023-08-06T08:52:15;18.40;99.90
67163;DHT22;54092;53.088;8.850;2023-08-06T08:54:43;18.60;99.90
67163;DHT22;54092;53.088;8.850;2023-08-06T08:57:09;19.10;99.90
67163;DHT22;54092;53.088;8.850;2023-08-06T08:59:35;19.60;99.90
67163;DHT22;54092;53.088;8.850;2023-08-06T09:02:01;20.20;99.90
67163;DHT22;54092;53.088;8.850;2023-08-06T09:04:29;20.90;99.90
67163;DHT22;54092;53.088;8.850;2023-08-06T09:06:58;21.40;99.90
67163;DHT22;54092;53.088;8.850;2023-08-06T09:09:34;22.00;99.90
67163;DHT22;54092;53.088;8.850;2023-08-06T09:12:06;21.70;99.90
67163;DHT22;54092;53.088;8.850;2023-08-06T09:14:34;21.90;99.90
67163;DHT22;54092;53.088;8.850;2023-08-06T09:17:00;22.20;99.90
67163;DHT22;54092;53.088;8.850;2023-08-06T09:19:26;22.70;99.90
67163;DHT22;54092;53.088;8.850;2023-08-06T09:21:53;23.40;99.90
67163;DHT22;54092;53.088;8.850;2023-08-06T09:24:20;23.80;99.90
67163;DHT22;54092;53.088;8.850;2023-08-06T09:26:46;23.80;99.90
67163;DHT22;54092;53.088;8.850;2023-08-06T09:29:11;23.80;99.90
67163;DHT22;54092;53.088;8.850;2023-08-06T09:31:45;24.50;99.90
67163;DHT22;54092;53.088;8.850;2023-08-06T09:34:31;24.80;99.90
67163;DHT22;54092;53.088;8.850;2023-08-06T09:36:56;24.80;99.90
67163;DHT22;54092;53.088;8.850;2023-08-06T09:39:27;24.90;99.90
67163;DHT22;54092;53.088;8.850;2023-08-06T09:42:00;25.30;99.90
67163;DHT22;54092;53.088;8.850;2023-08-06T09:44:30;25.50;99.90
67163;DHT22;54092;53.088;8.850;2023-08-06T09:47:01;26.10;99.90
67163;DHT22;54092;53.088;8.850;2023-08-06T09:49:28;26.00;99.90
67163;DHT22;54092;53.088;8.850;2023-08-06T09:52:05;26.00;99.90
67163;DHT22;54092;53.088;8.850;2023-08-06T09:54:32;26.20;99.90
67163;DHT22;54092;53.088;8.850;2023-08-06T09:57:00;26.60;99.90
67163;DHT22;54092;53.088;8.850;2023-08-06T09:59:26;26.40;99.90
67163;DHT22;54092;53.088;8.850;2023-08-06T10:01:54;26.30;99.90
67163;DHT22;54092;53.088;8.850;2023-08-06T10:04:20;26.20;99.90
67163;DHT22;54092;53.088;8.850;2023-08-06T10:06:49;26.10;99.90
67163;DHT22;54092;53.088;8.850;2023-08-06T10:09:14;26.70;99.90
67163;DHT22;54092;53.088;8.850;2023-08-06T10:11:44;27.10;99.90
67163;DHT22;54092;53.088;8.850;2023-08-06T10:14:18;27.50;99.90
67163;DHT22;54092;53.088;8.850;2023-08-06T10:16:45;27.40;99.90
67163;DHT22;54092;53.088;8.850;2023-08-06T10:19:13;27.60;99.90
67163;DHT22;54092;53.088;8.850;2023-08-06T10:21:40;27.30;99.90
67163;DHT22;54092;53.088;8.850;2023-08-06T10:24:09;26.90;99.90
67163;DHT22;54092;53.088;8.850;2023-08-06T10:26:39;27.10;99.90
67163;DHT22;54092;53.088;8.850;2023-08-06T10:29:37;26.70;99.90
67163;DHT22;54092;53.088;8.850;2023-08-06T10:32:03;27.10;99.90
67163;DHT22;54092;53.088;8.850;2023-08-06T10:34:58;27.30;99.90
67163;DHT22;54092;53.088;8.850;2023-08-06T10:37:29;27.60;99.90
67163;DHT22;54092;53.088;8.850;2023-08-06T10:39:59;27.70;99.90
67163;DHT22;54092;53.088;8.850;2023-08-06T10:42:29;27.50;99.90
67163;DHT22;54092;53.088;8.850;2023-08-06T10:45:37;27.60;99.90
67163;DHT22;54092;53.088;8.850;2023-08-06T10:48:03;26.80;99.90
67163;DHT22;54092;53.088;8.850;2023-08-06T10:50:30;25.40;99.90
67163;DHT22;54092;53.088;8.850;2023-08-06T10:52:57;25.30;99.90
67163;DHT22;54092;53.088;8.850;2023-08-06T10:55:27;25.80;99.90
67163;DHT22;54092;53.088;8.850;2023-08-06T10:57:53;26.00;99.90
67163;DHT22;54092;53.088;8.850;2023-08-06T11:00:23;26.30;99.90
67163;DHT22;54092;53.088;8.850;2023-08-06T11:02:52;27.10;99.90
67163;DHT22;54092;53.088;8.850;2023-08-06T11:05:18;27.60;99.90
67163;DHT22;54092;53.088;8.850;2023-08-06T11:07:44;28.10;99.90
67163;DHT22;54092;53.088;8.850;2023-08-06T11:10:11;28.20;99.90
67163;DHT22;54092;53.088;8.850;2023-08-06T11:12:38;27.60;99.90
67163;DHT22;54092;53.088;8.850;2023-08-06T11:15:04;27.60;99.90
67163;DHT22;54092;53.088;8.850;2023-08-06T11:17:31;28.10;99.90
67163;DHT22;54092;53.088;8.850;2023-08-06T11:20:04;28.30;99.90
67163;DHT22;54092;53.088;8.850;2023-08-06T11:22:30;28.60;99.90
67163;DHT22;54092;53.088;8.850;2023-08-06T11:24:56;29.40;99.90
67163;DHT22;54092;53.088;8.850;2023-08-06T11:27:22;29.70;99.90
67163;DHT22;54092;53.088;8.850;2023-08-06T11:29:48;29.10;99.90
67163;DHT22;54092;53.088;8.850;2023-08-06T11:32:13;29.10;99.90
67163;DHT22;54092;53.088;8.850;2023-08-06T11:34:39;29.50;99.90
67163;DHT22;54092;53.088;8.850;2023-08-06T11:37:06;29.70;99.90
67163;DHT22;54092;53.088;8.850;2023-08-06T11:39:35;29.30;99.90
67163;DHT22;54092;53.088;8.850;2023-08-06T11:42:05;29.10;99.90
67163;DHT22;54092;53.088;8.850;2023-08-06T11:44:35;29.30;99.90
67163;DHT22;54092;53.088;8.850;2023-08-06T11:47:04;29.50;99.90
67163;DHT22;54092;53.088;8.850;2023-08-06T11:52:19;29.70;99.90
67163;DHT22;54092;53.088;8.850;2023-08-06T11:57:36;30.00;99.90
67163;DHT22;54092;53.088;8.850;2023-08-06T12:00:06;30.50;99.90
67163;DHT22;54092;53.088;8.850;2023-08-06T12:02:33;30.00;99.90
67163;DHT22;54092;53.088;8.850;2023-08-06T12:05:10;28.10;99.90
67163;DHT22;54092;53.088;8.850;2023-08-06T12:07:47;26.10;99.90
67163;DHT22;54092;53.088;8.850;2023-08-06T12:10:13;24.70;99.90
67163;DHT22;54092;53.088;8.850;2023-08-06T12:12:39;24.10;99.90
67163;DHT22;54092;53.088;8.850;2023-08-06T12:15:06;24.00;99.90
67163;DHT22;54092;53.088;8.850;2023-08-06T12:17:33;24.90;99.90
67163;DHT22;54092;53.088;8.850;2023-08-06T12:19:58;25.60;99.90
67163;DHT22;54092;53.088;8.850;2023-08-06T12:22:24;25.30;99.90
67163;DHT22;54092;53.088;8.850;2023-08-06T12:24:50;24.80;99.90
67163;DHT22;54092;53.088;8.850;2023-08-06T12:27:16;24.20;99.90
67163;DHT22;54092;53.088;8.850;2023-08-06T12:29:49;23.60;99.90
67163;DHT22;54092;53.088;8.850;2023-08-06T12:32:15;23.00;99.90
67163;DHT22;54092;53.088;8.850;2023-08-06T12:34:41;22.70;99.90
67163;DHT22;54092;53.088;8.850;2023-08-06T12:37:08;22.50;99.90
67163;DHT22;54092;53.088;8.850;2023-08-06T12:39:35;22.40;99.90
67163;DHT22;54092;53.088;8.850;2023-08-06T12:42:02;22.50;99.90
67163;DHT22;54092;53.088;8.850;2023-08-06T12:44:28;22.40;99.90
67163;DHT22;54092;53.088;8.850;2023-08-06T12:46:54;22.40;99.90
67163;DHT22;54092;53.088;8.850;2023-08-06T12:49:20;22.30;99.90
67163;DHT22;54092;53.088;8.850;2023-08-06T12:51:50;22.40;99.90
67163;DHT22;54092;53.088;8.850;2023-08-06T12:54:19;22.40;99.90
67163;DHT22;54092;53.088;8.850;2023-08-06T12:56:46;22.40;99.90
67163;DHT22;54092;53.088;8.850;2023-08-06T12:59:14;22.20;99.90
67163;DHT22;54092;53.088;8.850;2023-08-06T13:01:39;22.30;99.90
67163;DHT22;54092;53.088;8.850;2023-08-06T13:04:05;22.40;99.90
67163;DHT22;54092;53.088;8.850;2023-08-06T13:06:31;22.40;99.90
67163;DHT22;54092;53.088;8.850;2023-08-06T13:09:01;22.40;99.90
67163;DHT22;54092;53.088;8.850;2023-08-06T13:11:27;22.40;99.90
67163;DHT22;54092;53.088;8.850;2023-08-06T13:13:52;22.40;99.90
67163;DHT22;54092;53.088;8.850;2023-08-06T13:16:18;22.40;99.90
67163;DHT22;54092;53.088;8.850;2023-08-06T13:18:43;22.30;99.90
67163;DHT22;54092;53.088;8.850;2023-08-06T13:21:09;22.20;99.90
67163;DHT22;54092;53.088;8.850;2023-08-06T13:23:35;22.20;99.90
67163;DHT22;54092;53.088;8.850;2023-08-06T13:26:00;22.30;99.90
67163;DHT22;54092;53.088;8.850;2023-08-06T13:28:26;22.50;99.90
67163;DHT22;54092;53.088;8.850;2023-08-06T13:30:51;22.70;99.90
67163;DHT22;54092;53.088;8.850;2023-08-06T13:33:17;22.60;99.90
67163;DHT22;54092;53.088;8.850;2023-08-06T13:35:42;22.60;99.90
67163;DHT22;54092;53.088;8.850;2023-08-06T13:38:08;22.50;99.90
67163;DHT22;54092;53.088;8.850;2023-08-06T13:40:35;22.50;99.90
67163;DHT22;54092;53.088;8.850;2023-08-06T13:43:01;22.40;99.90
67163;DHT22;54092;53.088;8.850;2023-08-06T13:45:26;22.30;99.90
67163;DHT22;54092;53.088;8.850;2023-08-06T13:47:52;22.40;99.90
67163;DHT22;54092;53.088;8.850;2023-08-06T13:50:17;22.40;99.90
67163;DHT22;54092;53.088;8.850;2023-08-06T13:52:44;22.40;99.90
67163;DHT22;54092;53.088;8.850;2023-08-06T13:55:10;22.30;99.90
67163;DHT22;54092;53.088;8.850;2023-08-06T13:57:35;22.30;99.90
67163;DHT22;54092;53.088;8.850;2023-08-06T14:00:01;22.30;99.90
67163;DHT22;54092;53.088;8.850;2023-08-06T14:02:27;22.30;99.90
67163;DHT22;54092;53.088;8.850;2023-08-06T14:04:53;22.10;99.90
67163;DHT22;54092;53.088;8.850;2023-08-06T14:07:19;22.10;99.90
67163;DHT22;54092;53.088;8.850;2023-08-06T14:09:44;22.10;99.90
67163;DHT22;54092;53.088;8.850;2023-08-06T14:12:10;22.20;99.90
67163;DHT22;54092;53.088;8.850;2023-08-06T14:14:36;22.20;99.90
67163;DHT22;54092;53.088;8.850;2023-08-06T14:17:01;22.20;99.90
67163;DHT22;54092;53.088;8.850;2023-08-06T14:19:27;22.30;99.90
67163;DHT22;54092;53.088;8.850;2023-08-06T14:21:54;22.10;99.90
67163;DHT22;54092;53.088;8.850;2023-08-06T14:24:20;21.80;99.90
67163;DHT22;54092;53.088;8.850;2023-08-06T14:26:46;21.80;99.90
67163;DHT22;54092;53.088;8.850;2023-08-06T14:29:11;21.80;99.90
67163;DHT22;54092;53.088;8.850;2023-08-06T14:31:39;22.00;99.90
67163;DHT22;54092;53.088;8.850;2023-08-06T14:34:04;22.00;99.90
67163;DHT22;54092;53.088;8.850;2023-08-06T14:36:30;21.90;99.90
67163;DHT22;54092;53.088;8.850;2023-08-06T14:38:55;21.90;99.90
67163;DHT22;54092;53.088;8.850;2023-08-06T14:41:21;22.00;99.90
67163;DHT22;54092;53.088;8.850;2023-08-06T14:43:46;21.80;99.90
67163;DHT22;54092;53.088;8.850;2023-08-06T14:46:12;21.80;99.90
67163;DHT22;54092;53.088;8.850;2023-08-06T14:48:37;21.80;99.90
67163;DHT22;54092;53.088;8.850;2023-08-06T14:51:04;21.80;99.90
67163;DHT22;54092;53.088;8.850;2023-08-06T14:53:30;21.70;99.90
67163;DHT22;54092;53.088;8.850;2023-08-06T14:55:55;21.50;99.90
67163;DHT22;54092;53.088;8.850;2023-08-06T14:58:21;21.60;99.90
67163;DHT22;54092;53.088;8.850;2023-08-06T15:00:46;21.70;99.90
67163;DHT22;54092;53.088;8.850;2023-08-06T15:03:12;21.70;99.90
67163;DHT22;54092;53.088;8.850;2023-08-06T15:05:37;21.60;99.90
67163;DHT22;54092;53.088;8.850;2023-08-06T15:08:03;21.50;99.90
67163;DHT22;54092;53.088;8.850;2023-08-06T15:10:29;21.40;99.90
67163;DHT22;54092;53.088;8.850;2023-08-06T15:12:54;21.50;99.90
67163;DHT22;54092;53.088;8.850;2023-08-06T15:15:20;21.60;99.90
67163;DHT22;54092;53.088;8.850;2023-08-06T15:17:47;21.70;99.90
67163;DHT22;54092;53.088;8.850;2023-08-06T15:20:13;21.70;99.90
67163;DHT22;54092;53.088;8.850;2023-08-06T15:22:39;21.70;99.90
67163;DHT22;54092;53.088;8.850;2023-08-06T15:25:04;21.70;99.90
67163;DHT22;54092;53.088;8.850;2023-08-06T15:27:30;21.80;99.90
67163;DHT22;54092;53.088;8.850;2023-08-06T15:29:57;21.80;99.90
67163;DHT22;54092;53.088;8.850;2023-08-06T15:32:22;21.70;99.90
67163;DHT22;54092;53.088;8.850;2023-08-06T15:34:49;21.50;99.90
67163;DHT22;54092;53.088;8.850;2023-08-06T15:37:15;21.40;99.90